createdAt,value
2023-03-07T00:01:47.396Z,3.05
2023-03-07T00:06:49.041Z,3.09
2023-03-07T00:11:50.785Z,3.12
2023-03-07T00:16:52.463Z,3.15
2023-03-07T00:21:54.057Z,3.14
2023-03-07T00:26:55.633Z,3.12
2023-03-07T00:31:57.290Z,3.14
2023-03-07T00:36:58.872Z,3.18
2023-03-07T00:42:00.466Z,3.20
2023-03-07T00:47:02.505Z,3.21
2023-03-07T00:52:04.318Z,3.22
2023-03-07T00:57:05.953Z,3.24
2023-03-07T01:02:07.652Z,3.28
2023-03-07T01:07:09.320Z,3.30
2023-03-07T01:12:11.046Z,3.36
2023-03-07T01:17:12.625Z,3.38
2023-03-07T01:22:14.380Z,3.40
2023-03-07T01:27:16.071Z,3.39
2023-03-07T01:32:17.902Z,3.41
2023-03-07T01:37:19.552Z,3.28
2023-03-07T01:42:22.029Z,3.07
2023-03-07T01:47:25.801Z,2.75
2023-03-07T01:52:48.712Z,2.55
2023-03-07T01:57:52.281Z,2.57
2023-03-07T02:03:25.205Z,2.56
2023-03-07T02:08:29.608Z,2.59
2023-03-07T02:13:31.241Z,2.64
2023-03-07T02:18:38.698Z,2.64
2023-03-07T02:24:17.628Z,2.59
2023-03-07T02:29:20.312Z,2.57
2023-03-07T02:34:28.058Z,2.64
2023-03-07T02:39:49.916Z,2.65
2023-03-07T02:45:15.526Z,2.73
2023-03-07T02:50:18.083Z,2.78
2023-03-07T02:55:23.778Z,2.83
2023-03-07T03:00:32.618Z,2.83
2023-03-07T03:05:34.334Z,2.84
2023-03-07T03:10:36.379Z,2.85
2023-03-07T03:15:38.212Z,2.90
2023-03-07T03:20:40.927Z,2.95
2023-03-07T03:25:42.846Z,2.97
2023-03-07T03:30:44.423Z,2.96
2023-03-07T03:35:46.116Z,3.00
2023-03-07T03:40:48.395Z,2.99
2023-03-07T03:45:58.058Z,3.00
2023-03-07T03:51:14.630Z,2.98
2023-03-07T03:56:21.518Z,3.02
2023-03-07T04:01:26.533Z,3.02
2023-03-07T04:06:30.765Z,3.02
2023-03-07T04:11:33.330Z,3.00
2023-03-07T04:16:35.484Z,3.05
2023-03-07T04:21:37.150Z,3.05
2023-03-07T04:26:41.235Z,3.06
2023-03-07T04:31:42.938Z,3.06
2023-03-07T04:36:45.423Z,3.09
2023-03-07T04:41:48.511Z,3.13
2023-03-07T04:46:52.594Z,3.18
2023-03-07T04:51:54.414Z,3.22
2023-03-07T04:56:56.474Z,3.24
2023-03-07T05:01:58.039Z,3.29
2023-03-07T05:06:59.932Z,3.33
2023-03-07T05:12:01.551Z,3.35
2023-03-07T05:17:04.361Z,3.36
2023-03-07T05:22:06.076Z,3.40
2023-03-07T05:27:07.877Z,3.40
2023-03-07T05:32:11.023Z,3.39
2023-03-07T05:37:13.411Z,3.42
2023-03-07T05:42:15.676Z,3.44
2023-03-07T05:47:17.699Z,3.45
2023-03-07T05:52:20.621Z,3.47
2023-03-07T05:57:22.714Z,3.48
2023-03-07T06:02:24.395Z,3.50
2023-03-07T06:07:27.000Z,3.52
2023-03-07T06:12:28.859Z,3.50
2023-03-07T06:17:30.486Z,3.48
2023-03-07T06:22:34.708Z,3.47
2023-03-07T06:27:38.038Z,3.50
2023-03-07T06:32:39.998Z,3.57
2023-03-07T06:37:42.459Z,3.67
2023-03-07T06:42:44.051Z,3.79
2023-03-07T06:47:46.525Z,3.91
2023-03-07T06:52:49.878Z,3.98
2023-03-07T06:57:51.577Z,4.07
2023-03-07T07:02:55.169Z,4.18
2023-03-07T07:07:56.849Z,4.28
2023-03-07T07:12:59.085Z,4.37
2023-03-07T07:18:02.250Z,4.43
2023-03-07T07:23:07.093Z,4.52
2023-03-07T07:28:11.545Z,4.63
2023-03-07T07:33:13.416Z,4.76
2023-03-07T07:38:15.383Z,4.83
2023-03-07T07:43:17.878Z,4.92
2023-03-07T07:48:31.610Z,5.10
2023-03-07T07:53:34.242Z,5.25
2023-03-07T07:58:36.266Z,5.45
2023-03-07T08:03:38.687Z,5.52
2023-03-07T08:08:40.259Z,5.61
2023-03-07T08:13:41.846Z,5.64
2023-03-07T08:18:47.820Z,5.60
2023-03-07T08:23:49.732Z,5.55
2023-03-07T08:28:51.330Z,5.64
2023-03-07T08:33:53.177Z,5.81
2023-03-07T08:38:54.690Z,5.92
2023-03-07T08:43:56.315Z,5.93
2023-03-07T08:48:57.814Z,5.97
2023-03-07T08:53:59.364Z,5.97
2023-03-07T08:59:00.916Z,5.91
2023-03-07T09:04:02.604Z,5.90
2023-03-07T09:09:05.988Z,5.91
2023-03-07T09:14:07.622Z,5.97
2023-03-07T09:19:13.855Z,6.01
2023-03-07T09:24:15.480Z,6.15
2023-03-07T09:29:17.174Z,6.29
2023-03-07T09:34:18.687Z,6.40
2023-03-07T09:39:25.959Z,6.52
2023-03-07T09:44:47.093Z,6.61
2023-03-07T09:50:24.781Z,6.70
2023-03-07T09:55:29.880Z,6.75
2023-03-07T10:00:33.722Z,6.77
2023-03-07T10:05:58.529Z,6.64
2023-03-07T10:11:23.084Z,6.41
2023-03-07T10:16:43.006Z,6.10
2023-03-07T10:21:47.490Z,6.07
2023-03-07T10:27:06.666Z,6.39
2023-03-07T10:32:39.363Z,6.81
2023-03-07T10:37:55.959Z,7.23
2023-03-07T10:42:59.348Z,7.58
2023-03-07T10:48:08.236Z,7.89
2023-03-07T10:53:24.484Z,8.30
2023-03-07T10:58:27.959Z,8.42
2023-03-07T11:03:42.499Z,8.34
2023-03-07T11:08:51.467Z,8.42
2023-03-07T11:14:08.369Z,8.46
2023-03-07T11:19:32.189Z,8.50
2023-03-07T11:24:39.048Z,8.74
2023-03-07T11:29:40.579Z,8.72
2023-03-07T11:34:59.425Z,8.74
2023-03-07T11:40:32.162Z,8.87
2023-03-07T11:45:43.279Z,8.85
2023-03-07T11:50:53.455Z,9.00
2023-03-07T11:56:25.888Z,8.97
2023-03-07T12:01:44.842Z,9.01
2023-03-07T12:06:52.755Z,8.96
2023-03-07T12:11:57.643Z,9.09
2023-03-07T12:17:25.659Z,9.14
2023-03-07T12:22:29.072Z,9.13
2023-03-07T12:27:52.482Z,9.02
2023-03-07T12:32:54.917Z,8.78
2023-03-07T12:38:18.474Z,8.83
2023-03-07T12:43:33.495Z,8.64
2023-03-07T12:48:58.923Z,8.76
2023-03-07T12:54:07.124Z,8.92
2023-03-07T12:59:12.933Z,8.86
2023-03-07T13:04:17.561Z,8.78
2023-03-07T13:09:24.963Z,8.65
2023-03-07T13:14:43.912Z,8.28
2023-03-07T13:19:56.950Z,8.03
2023-03-07T13:25:27.647Z,8.08
2023-03-07T13:30:31.558Z,8.11
2023-03-07T13:35:38.977Z,8.17
2023-03-07T13:40:43.373Z,8.25
2023-03-07T13:45:46.686Z,8.04
2023-03-07T13:50:48.215Z,7.86
2023-03-07T13:56:20.307Z,7.98
2023-03-07T14:01:26.642Z,8.02
2023-03-07T14:06:36.496Z,8.03
2023-03-07T14:11:47.587Z,7.80
2023-03-07T14:17:18.529Z,7.50
2023-03-07T14:22:44.209Z,7.50
2023-03-07T14:28:03.683Z,7.39
2023-03-07T14:33:05.239Z,7.13
2023-03-07T14:38:16.748Z,7.00
2023-03-07T14:43:33.075Z,6.97
2023-03-07T14:48:56.931Z,6.95
2023-03-07T14:54:04.910Z,6.99
2023-03-07T14:59:10.800Z,7.06
2023-03-07T15:04:28.704Z,7.14
2023-03-07T15:09:32.136Z,7.16
2023-03-07T15:14:45.644Z,7.20
2023-03-07T15:19:52.757Z,7.29
2023-03-07T15:24:55.163Z,7.33
2023-03-07T15:30:01.915Z,7.44
2023-03-07T15:35:15.073Z,7.50
2023-03-07T15:40:28.373Z,7.40
2023-03-07T15:45:38.969Z,7.30
2023-03-07T15:50:40.562Z,7.25
2023-03-07T15:55:42.946Z,7.19
2023-03-07T16:00:44.503Z,7.22
2023-03-07T16:05:46.046Z,7.00
2023-03-07T16:11:00.397Z,6.90
2023-03-07T16:16:16.499Z,6.82
2023-03-07T16:21:19.355Z,6.66
2023-03-07T16:26:23.745Z,6.54
2023-03-07T16:31:25.317Z,6.47
2023-03-07T16:36:26.815Z,6.47
2023-03-07T16:41:28.747Z,6.38
2023-03-07T16:46:30.630Z,6.24
2023-03-07T16:51:32.488Z,6.18
2023-03-07T16:56:40.810Z,6.08
2023-03-07T17:01:45.992Z,6.00
2023-03-07T17:06:57.745Z,5.90
2023-03-07T17:12:03.173Z,5.79
2023-03-07T17:17:05.820Z,5.70
2023-03-07T17:22:07.474Z,5.64
2023-03-07T17:27:09.469Z,5.59
2023-03-07T17:32:11.546Z,5.55
2023-03-07T17:37:13.777Z,5.54
2023-03-07T17:42:15.368Z,5.52
2023-03-07T17:47:16.883Z,5.52
2023-03-07T17:52:18.374Z,5.49
2023-03-07T17:57:20.578Z,5.52
2023-03-07T18:02:24.650Z,5.48
2023-03-07T18:07:26.210Z,5.45
2023-03-07T18:12:27.763Z,5.44
2023-03-07T18:17:35.741Z,5.45
2023-03-07T18:22:47.803Z,5.46
2023-03-07T18:27:49.924Z,5.46
2023-03-07T18:32:55.292Z,5.43
2023-03-07T18:37:58.291Z,5.41
2023-03-07T18:43:00.600Z,5.41
2023-03-07T18:48:02.144Z,5.39
2023-03-07T18:53:06.677Z,5.35
2023-03-07T18:58:10.319Z,5.34
2023-03-07T19:03:11.873Z,5.31
2023-03-07T19:08:14.065Z,5.31
2023-03-07T19:13:15.611Z,5.32
2023-03-07T19:18:17.138Z,5.29
2023-03-07T19:23:21.236Z,5.28
2023-03-07T19:28:22.742Z,5.26
2023-03-07T19:33:25.078Z,5.25
2023-03-07T19:38:26.570Z,5.24
2023-03-07T19:43:28.980Z,5.24
2023-03-07T19:48:30.523Z,5.24
2023-03-07T19:53:32.052Z,5.20
2023-03-07T19:58:36.043Z,5.16
2023-03-07T20:03:40.196Z,5.18
2023-03-07T20:08:42.184Z,5.17
2023-03-07T20:13:48.220Z,5.18
2023-03-07T20:18:51.847Z,5.20
2023-03-07T20:23:53.940Z,5.19
2023-03-07T20:28:56.360Z,5.14
2023-03-07T20:33:59.672Z,5.12
2023-03-07T20:39:04.508Z,5.11
2023-03-07T20:44:08.674Z,5.09
2023-03-07T20:49:13.285Z,5.06
2023-03-07T20:54:17.076Z,5.02
2023-03-07T20:59:18.915Z,4.94
2023-03-07T21:04:21.014Z,4.81
2023-03-07T21:09:23.368Z,4.68
2023-03-07T21:14:26.919Z,4.49
2023-03-07T21:19:28.398Z,4.40
2023-03-07T21:24:29.880Z,4.30
2023-03-07T21:29:31.385Z,4.22
2023-03-07T21:34:32.897Z,4.25
2023-03-07T21:39:34.500Z,4.39
2023-03-07T21:44:36.035Z,4.49
2023-03-07T21:49:37.541Z,4.57
2023-03-07T21:54:39.014Z,4.66
2023-03-07T21:59:40.625Z,4.69
2023-03-07T22:04:42.111Z,4.71
2023-03-07T22:09:43.633Z,4.70
2023-03-07T22:14:46.650Z,4.66
2023-03-07T22:19:48.222Z,4.64
2023-03-07T22:24:49.925Z,4.66
2023-03-07T22:29:51.462Z,4.64
2023-03-07T22:34:53.055Z,4.60
2023-03-07T22:39:54.805Z,4.60
2023-03-07T22:44:56.313Z,4.55
2023-03-07T22:49:57.826Z,4.55
2023-03-07T22:54:59.363Z,4.54
2023-03-07T23:00:00.914Z,4.55
2023-03-07T23:05:02.464Z,4.55
2023-03-07T23:10:06.420Z,4.55
2023-03-07T23:15:08.353Z,4.55
2023-03-07T23:20:10.981Z,4.56
2023-03-07T23:25:13.594Z,4.53
2023-03-07T23:30:17.423Z,4.53
2023-03-07T23:35:18.925Z,4.56
2023-03-07T23:40:22.923Z,4.56
2023-03-07T23:45:24.970Z,4.60
2023-03-07T23:50:26.517Z,4.60
2023-03-07T23:55:28.016Z,4.63
